createdAt,value
2019-03-17T00:02:09.047Z,95.40
2019-03-17T00:04:36.475Z,95.80
2019-03-17T00:07:26.044Z,95.70
2019-03-17T00:09:53.677Z,95.60
2019-03-17T00:12:21.086Z,95.80
2019-03-17T00:14:48.694Z,95.80
2019-03-17T00:17:15.963Z,95.80
2019-03-17T00:19:46.354Z,95.90
2019-03-17T00:22:33.199Z,95.90
2019-03-17T00:25:08.937Z,96.00
2019-03-17T00:27:33.234Z,96.10
2019-03-17T00:30:00.703Z,96.10
2019-03-17T00:32:28.004Z,96.20
2019-03-17T00:34:55.405Z,96.50
2019-03-17T00:37:22.931Z,96.70
2019-03-17T00:39:50.254Z,96.90
2019-03-17T00:42:19.827Z,96.90
2019-03-17T00:44:47.335Z,96.80
2019-03-17T00:47:14.647Z,97.60
2019-03-17T00:49:42.046Z,97.80
2019-03-17T00:52:09.439Z,98.10
2019-03-17T00:54:36.839Z,98.60
2019-03-17T00:57:04.311Z,98.60
2019-03-17T00:59:31.795Z,98.70
2019-03-17T01:01:59.248Z,99.00
2019-03-17T01:04:26.583Z,99.20
2019-03-17T01:06:54.022Z,99.70
2019-03-17T01:09:40.876Z,99.90
2019-03-17T01:12:08.423Z,99.90
2019-03-17T01:14:35.711Z,99.90
2019-03-17T01:17:03.007Z,99.90
2019-03-17T01:19:30.500Z,99.90
2019-03-17T01:21:59.406Z,99.90
2019-03-17T01:24:26.741Z,99.90
2019-03-17T01:26:54.343Z,99.90
2019-03-17T01:29:21.621Z,99.90
2019-03-17T01:32:08.383Z,99.90
2019-03-17T01:34:35.654Z,99.90
2019-03-17T01:37:03.059Z,99.90
2019-03-17T01:39:30.421Z,99.90
2019-03-17T01:41:57.986Z,99.90
2019-03-17T01:44:27.751Z,99.90
2019-03-17T01:46:55.155Z,99.90
2019-03-17T01:49:22.495Z,99.90
2019-03-17T01:51:50.072Z,99.90
2019-03-17T01:54:17.370Z,99.90
2019-03-17T01:56:44.860Z,99.90
2019-03-17T01:59:12.212Z,99.90
2019-03-17T02:01:54.265Z,99.90
2019-03-17T02:04:21.637Z,99.90
2019-03-17T02:06:49.111Z,99.90
2019-03-17T02:09:16.593Z,99.90
2019-03-17T02:11:46.080Z,99.90
2019-03-17T02:14:13.502Z,99.90
2019-03-17T02:16:41.190Z,99.90
2019-03-17T02:19:08.697Z,99.90
2019-03-17T02:21:36.017Z,99.90
2019-03-17T02:24:03.397Z,99.90
2019-03-17T02:26:30.796Z,99.90
2019-03-17T02:28:58.187Z,99.90
2019-03-17T02:31:25.795Z,99.90
2019-03-17T02:33:53.276Z,99.90
2019-03-17T02:36:20.608Z,99.90
2019-03-17T02:38:48.137Z,99.90
2019-03-17T02:41:15.527Z,99.90
2019-03-17T02:43:42.906Z,99.90
2019-03-17T02:46:10.327Z,99.90
2019-03-17T02:48:37.704Z,99.90
2019-03-17T02:51:24.495Z,99.90
2019-03-17T02:53:51.940Z,99.90
2019-03-17T02:56:19.366Z,99.90
2019-03-17T02:58:46.743Z,99.90
2019-03-17T03:01:14.145Z,99.90
2019-03-17T03:03:41.466Z,99.90
2019-03-17T03:06:08.946Z,99.90
2019-03-17T03:08:36.316Z,99.90
2019-03-17T03:11:23.099Z,99.90
2019-03-17T03:13:50.412Z,99.90
2019-03-17T03:16:17.705Z,99.90
2019-03-17T03:18:45.205Z,99.90
2019-03-17T03:21:12.504Z,99.90
2019-03-17T03:23:39.996Z,99.90
2019-03-17T03:26:07.743Z,99.90
2019-03-17T03:28:35.235Z,99.90
2019-03-17T03:31:02.534Z,99.90
2019-03-17T03:33:30.106Z,99.90
2019-03-17T03:36:10.156Z,99.90
2019-03-17T03:38:26.682Z,99.90
2019-03-17T03:40:54.051Z,99.90
2019-03-17T03:43:21.629Z,99.90
2019-03-17T03:45:49.005Z,99.90
2019-03-17T03:48:16.463Z,99.90
2019-03-17T03:50:43.866Z,99.90
2019-03-17T03:53:11.214Z,99.90
2019-03-17T03:55:51.579Z,99.90
2019-03-17T03:58:19.027Z,99.90
2019-03-17T04:00:46.499Z,99.90
2019-03-17T04:03:14.039Z,99.90
2019-03-17T04:05:41.359Z,99.90
2019-03-17T04:08:08.832Z,99.90
2019-03-17T04:10:55.603Z,99.90
2019-03-17T04:13:22.979Z,99.90
2019-03-17T04:15:50.261Z,99.90
2019-03-17T04:18:17.690Z,99.90
2019-03-17T04:20:44.983Z,99.90
2019-03-17T04:23:12.436Z,99.90
2019-03-17T04:25:59.217Z,99.90
2019-03-17T04:28:26.701Z,99.90
2019-03-17T04:30:53.992Z,99.90
2019-03-17T04:33:21.297Z,99.90
2019-03-17T04:35:48.774Z,99.90
2019-03-17T04:38:35.557Z,99.90
2019-03-17T04:41:02.856Z,99.90
2019-03-17T04:43:30.179Z,99.90
2019-03-17T04:45:57.717Z,99.90
2019-03-17T04:48:25.038Z,99.90
2019-03-17T04:50:52.445Z,99.90
2019-03-17T04:53:39.200Z,99.90
2019-03-17T04:56:07.619Z,99.90
2019-03-17T04:58:34.898Z,99.90
2019-03-17T05:01:02.296Z,99.90
2019-03-17T05:03:29.632Z,99.90
2019-03-17T05:05:56.909Z,99.90
2019-03-17T05:08:24.289Z,99.90
2019-03-17T05:10:51.575Z,99.90
2019-03-17T05:13:18.894Z,99.90
2019-03-17T05:15:46.335Z,99.90
2019-03-17T05:18:13.693Z,99.90
2019-03-17T05:21:00.478Z,99.90
2019-03-17T05:23:27.832Z,99.90
2019-03-17T05:26:14.617Z,99.90
2019-03-17T05:28:41.924Z,99.90
2019-03-17T05:31:09.281Z,99.90
2019-03-17T05:33:36.615Z,99.90
2019-03-17T05:36:04.048Z,99.90
2019-03-17T05:38:31.376Z,99.90
2019-03-17T05:40:58.803Z,99.90
2019-03-17T05:43:26.095Z,99.90
2019-03-17T05:45:53.450Z,99.90
2019-03-17T05:48:40.294Z,99.90
2019-03-17T05:51:08.294Z,99.90
2019-03-17T05:53:35.679Z,99.90
2019-03-17T05:56:03.010Z,99.90
2019-03-17T05:58:30.480Z,99.90
2019-03-17T06:00:57.848Z,99.90
2019-03-17T06:03:25.268Z,99.90
2019-03-17T06:05:52.580Z,99.90
2019-03-17T06:08:20.036Z,99.90
2019-03-17T06:10:47.457Z,99.90
2019-03-17T06:13:14.770Z,99.90
2019-03-17T06:15:42.192Z,99.90
2019-03-17T06:18:09.560Z,99.90
2019-03-17T06:20:36.979Z,99.90
2019-03-17T06:23:04.274Z,99.90
2019-03-17T06:25:31.649Z,99.90
2019-03-17T06:27:59.046Z,99.90
2019-03-17T06:30:26.587Z,99.90
2019-03-17T06:32:54.204Z,99.90
2019-03-17T06:35:21.563Z,99.90
2019-03-17T06:37:49.083Z,99.90
2019-03-17T06:40:35.947Z,99.90
2019-03-17T06:43:03.515Z,99.90
2019-03-17T06:45:30.845Z,99.90
2019-03-17T06:47:58.336Z,99.90
2019-03-17T06:50:25.663Z,99.90
2019-03-17T06:52:53.839Z,99.90
2019-03-17T06:55:21.362Z,99.90
2019-03-17T06:57:48.646Z,99.90
2019-03-17T07:00:16.003Z,99.90
2019-03-17T07:02:43.423Z,99.90
2019-03-17T07:05:30.419Z,99.90
2019-03-17T07:07:57.868Z,99.90
2019-03-17T07:10:25.418Z,99.90
2019-03-17T07:13:12.267Z,99.90
2019-03-17T07:15:39.747Z,99.90
2019-03-17T07:18:07.078Z,99.90
2019-03-17T07:20:34.825Z,99.90
2019-03-17T07:23:02.350Z,99.90
2019-03-17T07:25:29.689Z,99.90
2019-03-17T07:27:57.114Z,99.90
2019-03-17T07:33:09.133Z,99.90
2019-03-17T07:35:56.106Z,99.90
2019-03-17T07:38:23.470Z,99.90
2019-03-17T07:40:50.862Z,99.90
2019-03-17T07:43:37.647Z,99.90
2019-03-17T07:46:05.198Z,99.90
2019-03-17T07:48:32.511Z,99.90
2019-03-17T07:50:59.971Z,99.90
2019-03-17T07:53:27.402Z,99.90
2019-03-17T07:55:54.710Z,99.90
2019-03-17T07:58:22.184Z,99.90
2019-03-17T08:01:09.369Z,99.90
2019-03-17T08:03:36.752Z,99.90
2019-03-17T08:06:04.130Z,99.90
2019-03-17T08:08:31.646Z,99.90
2019-03-17T08:10:59.287Z,99.90
2019-03-17T08:13:26.684Z,99.90
2019-03-17T08:15:54.142Z,99.90
2019-03-17T08:18:41.041Z,99.90
2019-03-17T08:21:27.912Z,99.90
2019-03-17T08:23:55.225Z,99.90
2019-03-17T08:26:22.573Z,99.90
2019-03-17T08:28:50.053Z,99.90
2019-03-17T08:31:36.816Z,99.90
2019-03-17T08:34:04.374Z,99.90
2019-03-17T08:36:31.939Z,99.50
2019-03-17T08:39:18.716Z,99.60
2019-03-17T08:41:49.087Z,99.60
2019-03-17T08:44:16.508Z,99.80
2019-03-17T08:46:43.914Z,99.00
2019-03-17T08:49:11.357Z,98.90
2019-03-17T08:51:58.140Z,98.90
2019-03-17T08:54:25.581Z,99.20
2019-03-17T08:56:53.124Z,98.30
2019-03-17T08:59:40.106Z,98.20
2019-03-17T09:02:07.636Z,98.30
2019-03-17T09:04:35.161Z,98.30
2019-03-17T09:07:02.522Z,98.30
2019-03-17T09:09:29.830Z,98.30
2019-03-17T09:12:16.578Z,97.40
2019-03-17T09:14:44.274Z,96.80
2019-03-17T09:17:14.722Z,96.30
2019-03-17T09:19:41.104Z,95.90
2019-03-17T09:22:08.606Z,96.70
2019-03-17T09:24:36.098Z,96.20
2019-03-17T09:27:22.875Z,96.60
2019-03-17T09:29:50.226Z,96.60
2019-03-17T09:32:37.067Z,97.20
2019-03-17T09:35:04.560Z,96.90
2019-03-17T09:37:31.891Z,97.60
2019-03-17T09:39:59.360Z,97.20
2019-03-17T09:42:26.823Z,97.00
2019-03-17T09:44:54.118Z,96.60
2019-03-17T09:47:21.583Z,96.50
2019-03-17T09:49:48.979Z,96.50
2019-03-17T09:52:16.447Z,97.20
2019-03-17T09:54:43.804Z,97.10
2019-03-17T09:57:11.424Z,97.00
2019-03-17T09:59:38.762Z,96.60
2019-03-17T10:02:06.373Z,96.90
2019-03-17T10:04:33.727Z,96.80
2019-03-17T10:07:01.082Z,97.40
2019-03-17T10:09:28.607Z,97.20
2019-03-17T10:12:15.385Z,97.10
2019-03-17T10:14:42.842Z,96.60
2019-03-17T10:17:10.271Z,97.00
2019-03-17T10:19:37.754Z,96.80
2019-03-17T10:22:05.121Z,96.70
2019-03-17T10:24:32.576Z,96.00
2019-03-17T10:26:59.874Z,96.40
2019-03-17T10:29:27.413Z,95.30
2019-03-17T10:31:54.727Z,95.40
2019-03-17T10:34:22.026Z,95.50
2019-03-17T10:37:11.680Z,95.50
2019-03-17T10:39:39.124Z,94.50
2019-03-17T10:42:06.438Z,94.20
2019-03-17T10:44:33.844Z,94.60
2019-03-17T10:47:01.238Z,94.20
2019-03-17T10:49:28.655Z,94.50
2019-03-17T10:51:56.396Z,94.40
2019-03-17T10:54:23.861Z,94.70
2019-03-17T10:56:51.204Z,94.70
2019-03-17T10:59:18.859Z,94.20
2019-03-17T11:02:05.770Z,94.60
2019-03-17T11:04:52.766Z,93.50
2019-03-17T11:10:17.816Z,93.30
2019-03-17T11:12:45.200Z,93.20
2019-03-17T11:15:32.196Z,93.60
2019-03-17T11:17:59.609Z,92.90
2019-03-17T11:20:46.381Z,93.30
2019-03-17T11:23:13.733Z,92.80
2019-03-17T11:25:41.353Z,93.50
2019-03-17T11:28:28.134Z,92.50
2019-03-17T11:30:59.339Z,92.60
2019-03-17T11:33:26.889Z,91.20
2019-03-17T11:35:54.288Z,92.10
2019-03-17T11:38:21.826Z,92.90
2019-03-17T11:40:49.133Z,92.50
2019-03-17T11:43:36.044Z,92.50
2019-03-17T11:48:48.177Z,91.90
2019-03-17T11:51:35.091Z,92.20
2019-03-17T11:54:15.703Z,91.90
2019-03-17T11:59:28.037Z,91.30
2019-03-17T12:01:55.592Z,91.50
2019-03-17T12:04:22.951Z,92.10
2019-03-17T12:06:50.391Z,92.30
2019-03-17T12:09:28.532Z,91.70
2019-03-17T12:11:47.007Z,91.80
2019-03-17T12:14:34.006Z,92.10
2019-03-17T12:17:20.857Z,92.80
2019-03-17T12:19:48.290Z,92.30
2019-03-17T12:22:15.858Z,91.30
2019-03-17T12:24:45.636Z,91.50
2019-03-17T12:27:13.220Z,92.10
2019-03-17T12:29:40.619Z,91.80
2019-03-17T12:32:08.212Z,91.60
2019-03-17T12:34:35.767Z,92.00
2019-03-17T12:37:03.060Z,91.00
2019-03-17T12:39:30.498Z,91.10
2019-03-17T12:41:57.983Z,90.30
2019-03-17T12:44:25.448Z,90.50
2019-03-17T12:46:52.769Z,89.70
2019-03-17T12:49:20.195Z,90.40
2019-03-17T12:52:06.979Z,90.20
2019-03-17T12:54:47.159Z,90.40
2019-03-17T12:57:14.751Z,90.90
2019-03-17T12:59:42.122Z,91.10
2019-03-17T13:02:09.951Z,91.50
2019-03-17T13:04:37.263Z,89.00
2019-03-17T13:07:04.677Z,90.00
2019-03-17T13:09:51.459Z,89.60
2019-03-17T13:12:18.897Z,87.50
2019-03-17T13:14:46.369Z,89.40
2019-03-17T13:17:13.916Z,89.20
2019-03-17T13:19:41.278Z,87.50
2019-03-17T13:22:08.860Z,87.40
2019-03-17T13:24:36.317Z,89.90
2019-03-17T13:27:03.904Z,87.10
2019-03-17T13:29:31.219Z,85.30
2019-03-17T13:31:58.716Z,84.60
2019-03-17T13:34:26.209Z,83.60
2019-03-17T13:36:53.541Z,85.50
2019-03-17T13:39:40.394Z,85.70
2019-03-17T13:42:07.890Z,86.30
2019-03-17T13:44:54.677Z,86.10
2019-03-17T13:47:22.159Z,84.60
2019-03-17T13:49:49.510Z,87.40
2019-03-17T13:52:16.883Z,87.50
2019-03-17T13:54:44.184Z,89.10
2019-03-17T13:57:11.643Z,89.90
2019-03-17T13:59:39.176Z,88.40
2019-03-17T14:02:06.541Z,89.20
2019-03-17T14:04:34.388Z,90.30
2019-03-17T14:07:22.558Z,90.10
2019-03-17T14:09:50.311Z,90.10
2019-03-17T14:12:17.713Z,90.10
2019-03-17T14:14:46.882Z,90.30
2019-03-17T14:17:14.598Z,90.30
2019-03-17T14:19:41.970Z,90.60
2019-03-17T14:22:09.466Z,90.20
2019-03-17T14:24:36.769Z,89.70
2019-03-17T14:27:23.534Z,90.90
2019-03-17T14:29:50.899Z,90.00
2019-03-17T14:32:18.228Z,90.10
2019-03-17T14:34:45.727Z,89.70
2019-03-17T14:37:13.122Z,89.20
2019-03-17T14:40:00.286Z,89.70
2019-03-17T14:42:27.771Z,88.90
2019-03-17T14:44:55.897Z,87.20
2019-03-17T14:47:23.482Z,86.60
2019-03-17T14:49:50.893Z,86.40
2019-03-17T14:52:18.402Z,87.50
2019-03-17T14:54:46.026Z,86.80
2019-03-17T14:57:13.387Z,85.90
2019-03-17T14:59:40.773Z,87.20
2019-03-17T15:02:08.284Z,85.90
2019-03-17T15:04:36.245Z,82.60
2019-03-17T15:07:03.743Z,82.90
2019-03-17T15:09:31.337Z,82.90
2019-03-17T15:12:18.324Z,85.30
2019-03-17T15:14:45.708Z,82.30
2019-03-17T15:17:13.016Z,85.80
2019-03-17T15:19:40.528Z,85.20
2019-03-17T15:22:08.011Z,83.90
2019-03-17T15:24:54.899Z,84.50
2019-03-17T15:27:22.258Z,83.00
2019-03-17T15:30:11.302Z,81.70
2019-03-17T15:32:38.630Z,82.70
2019-03-17T15:35:25.680Z,82.10
2019-03-17T15:37:53.104Z,83.40
2019-03-17T15:40:20.701Z,82.40
2019-03-17T15:42:48.403Z,83.60
2019-03-17T15:45:15.959Z,83.70
2019-03-17T15:47:43.363Z,84.20
2019-03-17T15:50:12.239Z,86.50
2019-03-17T15:52:40.260Z,88.00
2019-03-17T15:55:09.239Z,88.40
2019-03-17T15:57:38.652Z,88.30
2019-03-17T16:00:26.866Z,87.10
2019-03-17T16:02:54.712Z,83.60
2019-03-17T16:05:24.534Z,84.00
2019-03-17T16:07:51.882Z,84.40
2019-03-17T16:10:19.556Z,82.90
2019-03-17T16:12:47.087Z,82.50
2019-03-17T16:15:14.612Z,81.90
2019-03-17T16:17:42.326Z,80.90
2019-03-17T16:20:11.841Z,81.60
2019-03-17T16:22:39.437Z,83.60
2019-03-17T16:25:07.271Z,81.10
2019-03-17T16:27:34.674Z,80.70
2019-03-17T16:30:23.036Z,82.70
2019-03-17T16:33:09.960Z,81.70
2019-03-17T16:35:37.494Z,81.10
2019-03-17T16:38:04.812Z,83.60
2019-03-17T16:40:32.317Z,82.70
2019-03-17T16:42:59.691Z,81.80
2019-03-17T16:45:27.214Z,82.30
2019-03-17T16:47:54.705Z,83.00
2019-03-17T16:50:22.161Z,81.20
2019-03-17T16:52:49.708Z,80.70
2019-03-17T16:55:17.156Z,81.10
2019-03-17T16:57:44.769Z,82.10
2019-03-17T17:00:31.666Z,81.70
2019-03-17T17:02:59.273Z,81.80
2019-03-17T17:05:26.668Z,80.10
2019-03-17T17:07:54.213Z,81.60
2019-03-17T17:10:21.865Z,81.10
2019-03-17T17:12:49.235Z,81.40
2019-03-17T17:15:18.767Z,82.20
2019-03-17T17:17:46.088Z,82.20
2019-03-17T17:20:15.418Z,84.00
2019-03-17T17:22:48.999Z,83.60
2019-03-17T17:25:16.369Z,84.60
2019-03-17T17:27:43.820Z,84.20
2019-03-17T17:30:12.818Z,84.30
2019-03-17T17:32:43.168Z,84.70
2019-03-17T17:35:10.626Z,84.30
2019-03-17T17:37:38.311Z,85.90
2019-03-17T17:40:08.117Z,85.70
2019-03-17T17:42:38.348Z,86.20
2019-03-17T17:45:07.585Z,86.50
2019-03-17T17:47:35.248Z,85.90
2019-03-17T17:50:02.609Z,87.70
2019-03-17T17:52:30.077Z,87.30
2019-03-17T17:54:57.667Z,87.70
2019-03-17T17:57:44.558Z,88.00
2019-03-17T18:00:15.100Z,88.30
2019-03-17T18:02:42.534Z,87.60
2019-03-17T18:05:09.991Z,88.40
2019-03-17T18:07:37.376Z,87.50
2019-03-17T18:10:24.162Z,87.70
2019-03-17T18:12:51.614Z,88.20
2019-03-17T18:15:20.169Z,89.00
2019-03-17T18:17:47.599Z,88.40
2019-03-17T18:20:35.832Z,89.10
2019-03-17T18:23:03.164Z,89.10
2019-03-17T18:25:30.595Z,90.00
2019-03-17T18:27:58.043Z,89.50
2019-03-17T18:30:25.377Z,89.70
2019-03-17T18:33:12.248Z,89.70
2019-03-17T18:35:39.963Z,90.60
2019-03-17T18:38:07.278Z,90.90
2019-03-17T18:40:34.818Z,91.00
2019-03-17T18:43:02.524Z,88.40
2019-03-17T18:45:49.535Z,87.90
2019-03-17T18:48:36.434Z,89.30
2019-03-17T18:51:03.829Z,88.40
2019-03-17T18:53:31.383Z,90.30
2019-03-17T18:55:59.082Z,91.10
2019-03-17T18:58:26.538Z,91.70
2019-03-17T19:00:53.887Z,92.50
2019-03-17T19:03:21.290Z,92.60
2019-03-17T19:05:48.814Z,92.70
2019-03-17T19:08:16.222Z,92.70
2019-03-17T19:10:43.667Z,93.00
2019-03-17T19:13:30.543Z,92.90
2019-03-17T19:15:58.073Z,93.20
2019-03-17T19:18:25.492Z,93.70
2019-03-17T19:20:53.004Z,93.90
2019-03-17T19:23:20.372Z,93.70
2019-03-17T19:25:48.048Z,93.70
2019-03-17T19:28:15.448Z,93.80
2019-03-17T19:30:42.959Z,94.50
2019-03-17T19:33:10.351Z,94.00
2019-03-17T19:35:57.643Z,94.00
2019-03-17T19:38:25.153Z,94.10
2019-03-17T19:40:52.702Z,94.20
2019-03-17T19:43:20.192Z,94.20
2019-03-17T19:45:47.638Z,94.30
2019-03-17T19:48:14.975Z,94.40
2019-03-17T19:50:43.593Z,94.70
2019-03-17T19:53:11.075Z,94.70
2019-03-17T19:55:38.511Z,94.70
2019-03-17T19:58:06.025Z,94.70
2019-03-17T20:00:33.353Z,94.90
2019-03-17T20:03:00.775Z,94.80
2019-03-17T20:05:28.255Z,95.20
2019-03-17T20:07:55.775Z,95.00
2019-03-17T20:10:23.158Z,95.20
2019-03-17T20:12:50.492Z,94.90
2019-03-17T20:15:18.280Z,94.80
2019-03-17T20:17:45.722Z,94.90
2019-03-17T20:20:13.108Z,94.40
2019-03-17T20:22:40.516Z,94.40
2019-03-17T20:25:08.167Z,94.40
2019-03-17T20:27:35.775Z,94.40
2019-03-17T20:30:03.584Z,94.60
2019-03-17T20:32:50.747Z,94.60
2019-03-17T20:35:19.099Z,94.60
2019-03-17T20:37:46.477Z,94.80
2019-03-17T20:40:14.045Z,95.30
2019-03-17T20:42:41.466Z,95.40
2019-03-17T20:45:09.159Z,95.50
2019-03-17T20:47:55.898Z,95.40
2019-03-17T20:50:23.376Z,95.10
2019-03-17T20:53:10.233Z,95.40
2019-03-17T20:55:37.803Z,96.10
2019-03-17T20:58:05.129Z,96.50
2019-03-17T21:00:32.556Z,95.90
2019-03-17T21:03:19.385Z,96.10
2019-03-17T21:05:46.992Z,95.90
2019-03-17T21:08:14.389Z,96.10
2019-03-17T21:10:41.832Z,95.80
2019-03-17T21:13:09.154Z,96.10
2019-03-17T21:15:36.594Z,96.40
2019-03-17T21:18:03.890Z,96.10
2019-03-17T21:20:31.224Z,96.00
2019-03-17T21:22:58.687Z,96.30
2019-03-17T21:25:45.477Z,95.90
2019-03-17T21:28:12.975Z,95.90
2019-03-17T21:30:40.648Z,95.60
2019-03-17T21:33:27.573Z,96.40
2019-03-17T21:36:14.331Z,95.50
2019-03-17T21:38:41.668Z,95.70
2019-03-17T21:41:09.195Z,96.10
2019-03-17T21:43:36.550Z,96.10
2019-03-17T21:46:23.367Z,96.10
2019-03-17T21:48:50.796Z,95.90
2019-03-17T21:51:18.215Z,95.90
2019-03-17T21:53:45.549Z,96.10
2019-03-17T21:56:12.966Z,96.00
2019-03-17T21:58:40.379Z,95.80
2019-03-17T22:01:07.767Z,95.80
2019-03-17T22:03:54.603Z,95.90
2019-03-17T22:06:21.890Z,96.00
2019-03-17T22:08:49.474Z,96.30
2019-03-17T22:11:16.845Z,95.70
2019-03-17T22:13:44.288Z,96.10
2019-03-17T22:16:11.605Z,96.20
2019-03-17T22:18:39.088Z,96.20
2019-03-17T22:21:06.411Z,96.30
2019-03-17T22:23:34.014Z,96.30
2019-03-17T22:26:03.362Z,96.20
2019-03-17T22:28:31.104Z,96.10
2019-03-17T22:30:58.520Z,96.20
2019-03-17T22:33:25.968Z,96.30
2019-03-17T22:35:53.387Z,96.40
2019-03-17T22:38:20.847Z,96.20
2019-03-17T22:40:48.276Z,96.10
2019-03-17T22:43:15.836Z,96.00
2019-03-17T22:45:43.303Z,96.10
2019-03-17T22:48:10.691Z,96.10
2019-03-17T22:53:35.542Z,96.20
2019-03-17T22:56:02.999Z,96.50
2019-03-17T22:58:30.339Z,96.50
2019-03-17T23:00:57.888Z,96.40
2019-03-17T23:03:25.222Z,96.40
2019-03-17T23:05:52.825Z,96.50
2019-03-17T23:08:20.331Z,96.50
2019-03-17T23:10:47.857Z,96.50
2019-03-17T23:13:15.687Z,96.50
2019-03-17T23:15:43.108Z,96.50
2019-03-17T23:18:10.443Z,96.70
2019-03-17T23:20:37.768Z,96.90
2019-03-17T23:23:05.270Z,96.70
2019-03-17T23:25:32.872Z,96.30
2019-03-17T23:28:00.481Z,96.70
2019-03-17T23:30:28.309Z,96.70
2019-03-17T23:33:15.483Z,96.50
2019-03-17T23:35:42.927Z,96.80
2019-03-17T23:38:10.465Z,96.80
2019-03-17T23:40:37.784Z,96.80
2019-03-17T23:43:24.670Z,96.90
2019-03-17T23:45:52.163Z,96.80
2019-03-17T23:48:19.579Z,97.10
2019-03-17T23:50:47.214Z,97.00
2019-03-17T23:53:14.518Z,97.10
2019-03-17T23:55:42.087Z,97.30
2019-03-17T23:58:09.660Z,97.40
